sensor_id;sensor_type;location;lat;lon;timestamp;P1;durP1;ratioP1;P2;durP2;ratioP2
63714;SDS011;49858;48.956;9.076;2023-09-19T00:00:39;1.85;;;0.80;;
63714;SDS011;49858;48.956;9.076;2023-09-19T00:03:08;0.63;;;0.55;;
63714;SDS011;49858;48.956;9.076;2023-09-19T00:05:37;1.98;;;0.98;;
63714;SDS011;49858;48.956;9.076;2023-09-19T00:08:05;3.13;;;0.80;;
63714;SDS011;49858;48.956;9.076;2023-09-19T00:10:34;2.42;;;0.90;;
63714;SDS011;49858;48.956;9.076;2023-09-19T00:13:03;1.60;;;1.02;;
63714;SDS011;49858;48.956;9.076;2023-09-19T00:15:35;1.55;;;1.10;;
63714;SDS011;49858;48.956;9.076;2023-09-19T00:18:04;1.63;;;1.05;;
63714;SDS011;49858;48.956;9.076;2023-09-19T00:20:35;2.85;;;0.75;;
63714;SDS011;49858;48.956;9.076;2023-09-19T00:23:05;1.63;;;0.80;;
63714;SDS011;49858;48.956;9.076;2023-09-19T00:25:35;3.92;;;0.93;;
63714;SDS011;49858;48.956;9.076;2023-09-19T00:28:05;3.47;;;0.80;;
63714;SDS011;49858;48.956;9.076;2023-09-19T00:30:34;2.28;;;0.65;;
63714;SDS011;49858;48.956;9.076;2023-09-19T00:33:02;4.13;;;0.80;;
63714;SDS011;49858;48.956;9.076;2023-09-19T00:35:33;2.15;;;0.77;;
63714;SDS011;49858;48.956;9.076;2023-09-19T00:38:01;1.23;;;0.70;;
63714;SDS011;49858;48.956;9.076;2023-09-19T00:40:30;1.15;;;0.50;;
63714;SDS011;49858;48.956;9.076;2023-09-19T00:42:59;1.60;;;0.40;;
63714;SDS011;49858;48.956;9.076;2023-09-19T00:45:28;0.40;;;0.35;;
63714;SDS011;49858;48.956;9.076;2023-09-19T00:47:57;1.45;;;0.70;;
63714;SDS011;49858;48.956;9.076;2023-09-19T00:50:30;1.42;;;0.70;;
63714;SDS011;49858;48.956;9.076;2023-09-19T00:52:58;1.58;;;0.85;;
63714;SDS011;49858;48.956;9.076;2023-09-19T00:55:27;2.17;;;1.05;;
63714;SDS011;49858;48.956;9.076;2023-09-19T00:57:59;2.45;;;0.82;;
63714;SDS011;49858;48.956;9.076;2023-09-19T01:00:28;1.23;;;0.75;;
63714;SDS011;49858;48.956;9.076;2023-09-19T01:02:59;1.30;;;0.82;;
63714;SDS011;49858;48.956;9.076;2023-09-19T01:05:27;1.40;;;0.82;;
63714;SDS011;49858;48.956;9.076;2023-09-19T01:07:56;1.95;;;1.17;;
63714;SDS011;49858;48.956;9.076;2023-09-19T01:10:25;2.08;;;0.88;;
63714;SDS011;49858;48.956;9.076;2023-09-19T01:12:54;1.33;;;0.75;;
63714;SDS011;49858;48.956;9.076;2023-09-19T01:15:36;1.58;;;1.08;;
63714;SDS011;49858;48.956;9.076;2023-09-19T01:18:12;3.45;;;1.00;;
63714;SDS011;49858;48.956;9.076;2023-09-19T01:20:47;1.55;;;0.98;;
63714;SDS011;49858;48.956;9.076;2023-09-19T01:23:29;2.50;;;0.95;;
63714;SDS011;49858;48.956;9.076;2023-09-19T01:26:23;1.58;;;0.85;;
63714;SDS011;49858;48.956;9.076;2023-09-19T01:29:01;3.40;;;0.80;;
63714;SDS011;49858;48.956;9.076;2023-09-19T01:31:47;3.70;;;0.80;;
63714;SDS011;49858;48.956;9.076;2023-09-19T01:34:16;1.55;;;0.95;;
63714;SDS011;49858;48.956;9.076;2023-09-19T01:36:44;9.52;;;1.13;;
63714;SDS011;49858;48.956;9.076;2023-09-19T01:39:12;1.38;;;1.00;;
63714;SDS011;49858;48.956;9.076;2023-09-19T01:41:47;4.13;;;0.90;;
63714;SDS011;49858;48.956;9.076;2023-09-19T01:44:25;1.77;;;0.80;;
63714;SDS011;49858;48.956;9.076;2023-09-19T01:47:01;1.02;;;0.82;;
63714;SDS011;49858;48.956;9.076;2023-09-19T01:49:42;3.08;;;0.82;;
63714;SDS011;49858;48.956;9.076;2023-09-19T01:52:17;1.25;;;0.90;;
63714;SDS011;49858;48.956;9.076;2023-09-19T01:54:50;2.35;;;1.00;;
63714;SDS011;49858;48.956;9.076;2023-09-19T01:57:20;1.55;;;1.00;;
63714;SDS011;49858;48.956;9.076;2023-09-19T01:59:57;1.55;;;0.93;;
63714;SDS011;49858;48.956;9.076;2023-09-19T02:02:39;2.17;;;0.90;;
63714;SDS011;49858;48.956;9.076;2023-09-19T02:05:10;0.93;;;0.80;;
63714;SDS011;49858;48.956;9.076;2023-09-19T02:07:39;1.88;;;1.02;;
63714;SDS011;49858;48.956;9.076;2023-09-19T02:10:07;1.85;;;1.00;;
63714;SDS011;49858;48.956;9.076;2023-09-19T02:12:38;3.03;;;0.95;;
63714;SDS011;49858;48.956;9.076;2023-09-19T02:15:06;2.55;;;1.00;;
63714;SDS011;49858;48.956;9.076;2023-09-19T02:17:35;1.50;;;1.10;;
63714;SDS011;49858;48.956;9.076;2023-09-19T02:20:06;3.40;;;0.90;;
63714;SDS011;49858;48.956;9.076;2023-09-19T02:22:36;1.95;;;1.00;;
63714;SDS011;49858;48.956;9.076;2023-09-19T02:25:05;1.90;;;0.98;;
63714;SDS011;49858;48.956;9.076;2023-09-19T02:27:35;3.58;;;1.00;;
63714;SDS011;49858;48.956;9.076;2023-09-19T02:30:04;2.25;;;0.90;;
63714;SDS011;49858;48.956;9.076;2023-09-19T02:32:33;1.38;;;0.82;;
63714;SDS011;49858;48.956;9.076;2023-09-19T02:35:07;2.67;;;1.30;;
63714;SDS011;49858;48.956;9.076;2023-09-19T02:37:38;2.05;;;1.00;;
63714;SDS011;49858;48.956;9.076;2023-09-19T02:40:06;3.85;;;1.10;;
63714;SDS011;49858;48.956;9.076;2023-09-19T02:42:46;4.85;;;1.10;;
63714;SDS011;49858;48.956;9.076;2023-09-19T02:45:17;2.85;;;1.52;;
63714;SDS011;49858;48.956;9.076;2023-09-19T02:47:48;2.28;;;1.30;;
63714;SDS011;49858;48.956;9.076;2023-09-19T02:50:20;2.35;;;0.77;;
63714;SDS011;49858;48.956;9.076;2023-09-19T02:52:48;1.30;;;0.70;;
63714;SDS011;49858;48.956;9.076;2023-09-19T02:55:17;1.80;;;0.80;;
63714;SDS011;49858;48.956;9.076;2023-09-19T02:57:48;1.42;;;0.90;;
63714;SDS011;49858;48.956;9.076;2023-09-19T03:00:18;2.45;;;0.90;;
63714;SDS011;49858;48.956;9.076;2023-09-19T03:02:48;2.08;;;1.10;;
63714;SDS011;49858;48.956;9.076;2023-09-19T03:05:16;2.78;;;1.13;;
63714;SDS011;49858;48.956;9.076;2023-09-19T03:07:46;5.07;;;0.90;;
63714;SDS011;49858;48.956;9.076;2023-09-19T03:10:17;2.72;;;1.10;;
63714;SDS011;49858;48.956;9.076;2023-09-19T03:12:45;1.30;;;0.80;;
63714;SDS011;49858;48.956;9.076;2023-09-19T03:15:14;2.70;;;1.10;;
63714;SDS011;49858;48.956;9.076;2023-09-19T03:17:44;1.40;;;1.00;;
63714;SDS011;49858;48.956;9.076;2023-09-19T03:20:19;4.38;;;1.10;;
63714;SDS011;49858;48.956;9.076;2023-09-19T03:22:50;1.60;;;1.00;;
63714;SDS011;49858;48.956;9.076;2023-09-19T03:25:19;2.83;;;1.33;;
63714;SDS011;49858;48.956;9.076;2023-09-19T03:27:50;2.70;;;1.10;;
63714;SDS011;49858;48.956;9.076;2023-09-19T03:30:19;2.22;;;0.80;;
63714;SDS011;49858;48.956;9.076;2023-09-19T03:32:48;1.80;;;1.08;;
63714;SDS011;49858;48.956;9.076;2023-09-19T03:35:18;3.13;;;1.20;;
63714;SDS011;49858;48.956;9.076;2023-09-19T03:37:47;2.47;;;1.33;;
63714;SDS011;49858;48.956;9.076;2023-09-19T03:40:17;2.03;;;1.20;;
63714;SDS011;49858;48.956;9.076;2023-09-19T03:42:47;2.20;;;1.02;;
63714;SDS011;49858;48.956;9.076;2023-09-19T03:45:15;1.48;;;0.80;;
63714;SDS011;49858;48.956;9.076;2023-09-19T03:47:48;3.40;;;1.23;;
63714;SDS011;49858;48.956;9.076;2023-09-19T03:50:19;1.55;;;0.95;;
63714;SDS011;49858;48.956;9.076;2023-09-19T03:52:47;1.55;;;1.00;;
63714;SDS011;49858;48.956;9.076;2023-09-19T03:55:17;2.22;;;1.00;;
63714;SDS011;49858;48.956;9.076;2023-09-19T03:57:47;2.80;;;1.30;;
63714;SDS011;49858;48.956;9.076;2023-09-19T04:00:15;4.00;;;1.33;;
63714;SDS011;49858;48.956;9.076;2023-09-19T04:02:47;8.02;;;2.13;;
63714;SDS011;49858;48.956;9.076;2023-09-19T04:05:15;1.23;;;0.90;;
63714;SDS011;49858;48.956;9.076;2023-09-19T04:07:44;2.80;;;1.40;;
63714;SDS011;49858;48.956;9.076;2023-09-19T04:10:12;4.20;;;1.40;;
63714;SDS011;49858;48.956;9.076;2023-09-19T04:12:50;3.90;;;0.88;;
63714;SDS011;49858;48.956;9.076;2023-09-19T04:15:19;2.30;;;1.00;;
63714;SDS011;49858;48.956;9.076;2023-09-19T04:17:49;2.00;;;1.10;;
63714;SDS011;49858;48.956;9.076;2023-09-19T04:20:17;2.75;;;1.70;;
63714;SDS011;49858;48.956;9.076;2023-09-19T04:22:46;8.05;;;1.65;;
63714;SDS011;49858;48.956;9.076;2023-09-19T04:25:14;3.80;;;1.60;;
63714;SDS011;49858;48.956;9.076;2023-09-19T04:27:42;3.80;;;1.90;;
63714;SDS011;49858;48.956;9.076;2023-09-19T04:30:13;5.72;;;2.25;;
63714;SDS011;49858;48.956;9.076;2023-09-19T04:32:41;2.63;;;1.80;;
63714;SDS011;49858;48.956;9.076;2023-09-19T04:35:09;4.68;;;1.90;;
63714;SDS011;49858;48.956;9.076;2023-09-19T04:37:38;7.88;;;2.17;;
63714;SDS011;49858;48.956;9.076;2023-09-19T04:40:08;4.68;;;2.78;;
63714;SDS011;49858;48.956;9.076;2023-09-19T04:42:39;5.45;;;2.70;;
63714;SDS011;49858;48.956;9.076;2023-09-19T04:45:08;3.83;;;2.47;;
63714;SDS011;49858;48.956;9.076;2023-09-19T04:47:38;3.78;;;2.25;;
63714;SDS011;49858;48.956;9.076;2023-09-19T04:50:07;5.15;;;2.13;;
63714;SDS011;49858;48.956;9.076;2023-09-19T04:52:40;4.35;;;2.53;;
63714;SDS011;49858;48.956;9.076;2023-09-19T04:55:11;2.80;;;1.95;;
63714;SDS011;49858;48.956;9.076;2023-09-19T04:57:43;2.50;;;1.88;;
63714;SDS011;49858;48.956;9.076;2023-09-19T05:00:12;4.03;;;1.70;;
63714;SDS011;49858;48.956;9.076;2023-09-19T05:02:44;2.25;;;1.23;;
63714;SDS011;49858;48.956;9.076;2023-09-19T05:05:13;3.38;;;1.42;;
63714;SDS011;49858;48.956;9.076;2023-09-19T05:07:44;2.65;;;1.50;;
63714;SDS011;49858;48.956;9.076;2023-09-19T05:10:13;3.20;;;1.90;;
63714;SDS011;49858;48.956;9.076;2023-09-19T05:12:42;3.53;;;1.92;;
63714;SDS011;49858;48.956;9.076;2023-09-19T05:15:13;3.15;;;1.88;;
63714;SDS011;49858;48.956;9.076;2023-09-19T05:17:48;4.13;;;2.50;;
63714;SDS011;49858;48.956;9.076;2023-09-19T05:20:22;5.13;;;2.50;;
63714;SDS011;49858;48.956;9.076;2023-09-19T05:25:28;3.83;;;1.42;;
63714;SDS011;49858;48.956;9.076;2023-09-19T05:28:04;2.83;;;1.90;;
63714;SDS011;49858;48.956;9.076;2023-09-19T05:30:33;3.35;;;2.13;;
63714;SDS011;49858;48.956;9.076;2023-09-19T05:33:04;4.18;;;2.33;;
63714;SDS011;49858;48.956;9.076;2023-09-19T05:35:32;4.60;;;2.80;;
63714;SDS011;49858;48.956;9.076;2023-09-19T05:38:00;2.30;;;2.08;;
63714;SDS011;49858;48.956;9.076;2023-09-19T05:40:29;2.40;;;1.63;;
63714;SDS011;49858;48.956;9.076;2023-09-19T05:42:56;3.47;;;2.13;;
63714;SDS011;49858;48.956;9.076;2023-09-19T05:45:27;2.03;;;1.20;;
63714;SDS011;49858;48.956;9.076;2023-09-19T05:47:55;3.03;;;1.50;;
63714;SDS011;49858;48.956;9.076;2023-09-19T05:50:32;3.60;;;1.45;;
63714;SDS011;49858;48.956;9.076;2023-09-19T05:53:00;3.97;;;1.45;;
63714;SDS011;49858;48.956;9.076;2023-09-19T05:55:28;1.75;;;1.17;;
63714;SDS011;49858;48.956;9.076;2023-09-19T05:57:55;2.38;;;1.40;;
63714;SDS011;49858;48.956;9.076;2023-09-19T06:00:23;2.67;;;1.15;;
63714;SDS011;49858;48.956;9.076;2023-09-19T06:02:54;2.35;;;1.30;;
63714;SDS011;49858;48.956;9.076;2023-09-19T06:05:22;1.98;;;1.10;;
63714;SDS011;49858;48.956;9.076;2023-09-19T06:07:52;2.72;;;1.27;;
63714;SDS011;49858;48.956;9.076;2023-09-19T06:10:21;2.55;;;1.33;;
63714;SDS011;49858;48.956;9.076;2023-09-19T06:12:49;0.93;;;0.82;;
63714;SDS011;49858;48.956;9.076;2023-09-19T06:15:17;3.58;;;1.05;;
63714;SDS011;49858;48.956;9.076;2023-09-19T06:17:46;3.50;;;1.48;;
63714;SDS011;49858;48.956;9.076;2023-09-19T06:20:15;2.17;;;1.10;;
63714;SDS011;49858;48.956;9.076;2023-09-19T06:22:44;2.63;;;1.40;;
63714;SDS011;49858;48.956;9.076;2023-09-19T06:25:15;2.45;;;1.42;;
63714;SDS011;49858;48.956;9.076;2023-09-19T06:27:46;5.03;;;1.40;;
63714;SDS011;49858;48.956;9.076;2023-09-19T06:30:14;6.32;;;1.75;;
63714;SDS011;49858;48.956;9.076;2023-09-19T06:32:44;3.78;;;1.10;;
63714;SDS011;49858;48.956;9.076;2023-09-19T06:35:13;3.65;;;1.23;;
63714;SDS011;49858;48.956;9.076;2023-09-19T06:37:42;4.03;;;1.30;;
63714;SDS011;49858;48.956;9.076;2023-09-19T06:40:11;1.80;;;1.25;;
63714;SDS011;49858;48.956;9.076;2023-09-19T06:42:42;2.78;;;1.48;;
63714;SDS011;49858;48.956;9.076;2023-09-19T06:45:12;2.10;;;1.40;;
63714;SDS011;49858;48.956;9.076;2023-09-19T06:47:44;1.55;;;1.00;;
63714;SDS011;49858;48.956;9.076;2023-09-19T06:50:16;3.20;;;1.10;;
63714;SDS011;49858;48.956;9.076;2023-09-19T06:52:46;3.60;;;1.55;;
63714;SDS011;49858;48.956;9.076;2023-09-19T06:55:17;3.13;;;1.48;;
63714;SDS011;49858;48.956;9.076;2023-09-19T06:57:48;4.95;;;1.60;;
63714;SDS011;49858;48.956;9.076;2023-09-19T07:00:16;2.85;;;1.58;;
63714;SDS011;49858;48.956;9.076;2023-09-19T07:02:45;2.65;;;1.40;;
63714;SDS011;49858;48.956;9.076;2023-09-19T07:05:22;2.97;;;1.20;;
63714;SDS011;49858;48.956;9.076;2023-09-19T07:07:50;3.95;;;1.50;;
63714;SDS011;49858;48.956;9.076;2023-09-19T07:10:18;1.70;;;1.25;;
63714;SDS011;49858;48.956;9.076;2023-09-19T07:12:47;3.22;;;1.23;;
63714;SDS011;49858;48.956;9.076;2023-09-19T07:15:22;3.03;;;1.50;;
63714;SDS011;49858;48.956;9.076;2023-09-19T07:17:54;1.80;;;1.17;;
63714;SDS011;49858;48.956;9.076;2023-09-19T07:20:23;2.25;;;1.25;;
63714;SDS011;49858;48.956;9.076;2023-09-19T07:22:52;2.22;;;1.00;;
63714;SDS011;49858;48.956;9.076;2023-09-19T07:25:21;2.38;;;1.02;;
63714;SDS011;49858;48.956;9.076;2023-09-19T07:27:51;1.17;;;0.70;;
63714;SDS011;49858;48.956;9.076;2023-09-19T07:30:19;2.53;;;1.05;;
63714;SDS011;49858;48.956;9.076;2023-09-19T07:32:47;4.10;;;1.13;;
63714;SDS011;49858;48.956;9.076;2023-09-19T07:35:15;2.95;;;1.33;;
63714;SDS011;49858;48.956;9.076;2023-09-19T07:37:43;2.50;;;1.10;;
63714;SDS011;49858;48.956;9.076;2023-09-19T07:40:16;2.80;;;1.10;;
63714;SDS011;49858;48.956;9.076;2023-09-19T07:42:45;2.85;;;1.00;;
63714;SDS011;49858;48.956;9.076;2023-09-19T07:45:19;3.85;;;0.93;;
63714;SDS011;49858;48.956;9.076;2023-09-19T07:47:47;3.65;;;0.93;;
63714;SDS011;49858;48.956;9.076;2023-09-19T07:50:16;2.75;;;0.98;;
63714;SDS011;49858;48.956;9.076;2023-09-19T07:52:46;4.32;;;0.93;;
63714;SDS011;49858;48.956;9.076;2023-09-19T07:55:14;2.38;;;0.80;;
63714;SDS011;49858;48.956;9.076;2023-09-19T07:57:43;1.42;;;0.80;;
63714;SDS011;49858;48.956;9.076;2023-09-19T08:00:15;1.98;;;0.70;;
63714;SDS011;49858;48.956;9.076;2023-09-19T08:02:45;2.28;;;0.88;;
63714;SDS011;49858;48.956;9.076;2023-09-19T08:05:22;0.82;;;0.47;;
63714;SDS011;49858;48.956;9.076;2023-09-19T08:07:50;1.95;;;1.10;;
63714;SDS011;49858;48.956;9.076;2023-09-19T08:10:19;1.77;;;0.90;;
63714;SDS011;49858;48.956;9.076;2023-09-19T08:12:48;2.83;;;1.00;;
63714;SDS011;49858;48.956;9.076;2023-09-19T08:15:22;0.98;;;0.70;;
63714;SDS011;49858;48.956;9.076;2023-09-19T08:17:51;4.22;;;1.42;;
63714;SDS011;49858;48.956;9.076;2023-09-19T08:20:19;1.85;;;1.02;;
63714;SDS011;49858;48.956;9.076;2023-09-19T08:22:48;1.55;;;1.13;;
63714;SDS011;49858;48.956;9.076;2023-09-19T08:25:19;1.75;;;1.00;;
63714;SDS011;49858;48.956;9.076;2023-09-19T08:27:47;1.35;;;0.90;;
63714;SDS011;49858;48.956;9.076;2023-09-19T08:30:16;4.57;;;1.42;;
63714;SDS011;49858;48.956;9.076;2023-09-19T08:32:52;0.50;;;0.40;;
63714;SDS011;49858;48.956;9.076;2023-09-19T08:35:27;1.20;;;0.80;;
63714;SDS011;49858;48.956;9.076;2023-09-19T08:37:55;2.13;;;0.50;;
63714;SDS011;49858;48.956;9.076;2023-09-19T08:40:23;1.58;;;0.93;;
63714;SDS011;49858;48.956;9.076;2023-09-19T08:42:57;3.22;;;1.05;;
63714;SDS011;49858;48.956;9.076;2023-09-19T08:45:25;0.95;;;0.60;;
63714;SDS011;49858;48.956;9.076;2023-09-19T08:47:56;1.20;;;0.88;;
63714;SDS011;49858;48.956;9.076;2023-09-19T08:50:33;2.20;;;0.60;;
63714;SDS011;49858;48.956;9.076;2023-09-19T08:55:42;1.20;;;0.70;;
63714;SDS011;49858;48.956;9.076;2023-09-19T08:58:15;1.95;;;0.80;;
63714;SDS011;49858;48.956;9.076;2023-09-19T09:00:51;1.00;;;0.70;;
63714;SDS011;49858;48.956;9.076;2023-09-19T09:03:22;1.10;;;0.55;;
63714;SDS011;49858;48.956;9.076;2023-09-19T09:05:51;3.45;;;1.10;;
63714;SDS011;49858;48.956;9.076;2023-09-19T09:08:19;2.38;;;0.70;;
63714;SDS011;49858;48.956;9.076;2023-09-19T09:10:49;2.10;;;0.93;;
63714;SDS011;49858;48.956;9.076;2023-09-19T09:13:17;3.60;;;1.17;;
63714;SDS011;49858;48.956;9.076;2023-09-19T09:15:46;0.90;;;0.68;;
63714;SDS011;49858;48.956;9.076;2023-09-19T09:18:14;2.47;;;0.80;;
63714;SDS011;49858;48.956;9.076;2023-09-19T09:20:44;1.25;;;0.63;;
63714;SDS011;49858;48.956;9.076;2023-09-19T09:23:15;1.23;;;0.68;;
63714;SDS011;49858;48.956;9.076;2023-09-19T09:25:46;1.17;;;0.90;;
63714;SDS011;49858;48.956;9.076;2023-09-19T09:28:19;2.95;;;0.90;;
63714;SDS011;49858;48.956;9.076;2023-09-19T09:30:48;1.48;;;0.90;;
63714;SDS011;49858;48.956;9.076;2023-09-19T09:33:17;1.88;;;0.80;;
63714;SDS011;49858;48.956;9.076;2023-09-19T09:35:50;15.10;;;1.10;;
63714;SDS011;49858;48.956;9.076;2023-09-19T09:38:24;2.05;;;0.88;;
63714;SDS011;49858;48.956;9.076;2023-09-19T09:40:54;2.90;;;1.00;;
63714;SDS011;49858;48.956;9.076;2023-09-19T09:43:29;6.15;;;1.10;;
63714;SDS011;49858;48.956;9.076;2023-09-19T09:46:08;0.63;;;0.50;;
63714;SDS011;49858;48.956;9.076;2023-09-19T09:49:10;1.30;;;0.88;;
63714;SDS011;49858;48.956;9.076;2023-09-19T09:51:48;3.75;;;0.98;;
63714;SDS011;49858;48.956;9.076;2023-09-19T09:54:28;4.88;;;0.88;;
63714;SDS011;49858;48.956;9.076;2023-09-19T09:57:03;1.83;;;1.17;;
63714;SDS011;49858;48.956;9.076;2023-09-19T09:59:48;1.10;;;0.85;;
63714;SDS011;49858;48.956;9.076;2023-09-19T10:02:17;2.85;;;0.85;;
63714;SDS011;49858;48.956;9.076;2023-09-19T10:04:51;2.00;;;1.05;;
63714;SDS011;49858;48.956;9.076;2023-09-19T10:07:28;1.23;;;0.57;;
63714;SDS011;49858;48.956;9.076;2023-09-19T10:10:02;1.75;;;1.02;;
63714;SDS011;49858;48.956;9.076;2023-09-19T10:12:43;29.92;;;2.05;;
63714;SDS011;49858;48.956;9.076;2023-09-19T10:15:16;2.70;;;1.27;;
63714;SDS011;49858;48.956;9.076;2023-09-19T10:17:47;1.80;;;1.10;;
63714;SDS011;49858;48.956;9.076;2023-09-19T10:20:16;1.73;;;0.90;;
63714;SDS011;49858;48.956;9.076;2023-09-19T10:23:06;1.83;;;0.73;;
63714;SDS011;49858;48.956;9.076;2023-09-19T10:25:37;2.88;;;0.80;;
63714;SDS011;49858;48.956;9.076;2023-09-19T10:28:07;1.20;;;0.73;;
63714;SDS011;49858;48.956;9.076;2023-09-19T10:30:41;2.22;;;1.00;;
63714;SDS011;49858;48.956;9.076;2023-09-19T10:33:10;1.10;;;0.65;;
63714;SDS011;49858;48.956;9.076;2023-09-19T10:35:40;2.45;;;1.17;;
63714;SDS011;49858;48.956;9.076;2023-09-19T10:38:12;1.67;;;0.80;;
63714;SDS011;49858;48.956;9.076;2023-09-19T10:40:44;1.05;;;0.70;;
63714;SDS011;49858;48.956;9.076;2023-09-19T10:43:18;1.55;;;0.93;;
63714;SDS011;49858;48.956;9.076;2023-09-19T10:45:48;1.52;;;0.80;;
63714;SDS011;49858;48.956;9.076;2023-09-19T10:48:19;1.42;;;0.82;;
63714;SDS011;49858;48.956;9.076;2023-09-19T10:51:05;1.92;;;0.90;;
63714;SDS011;49858;48.956;9.076;2023-09-19T10:56:16;2.95;;;0.77;;
63714;SDS011;49858;48.956;9.076;2023-09-19T10:58:48;2.40;;;1.15;;
63714;SDS011;49858;48.956;9.076;2023-09-19T11:01:17;1.35;;;0.63;;
63714;SDS011;49858;48.956;9.076;2023-09-19T11:03:47;2.03;;;0.70;;
63714;SDS011;49858;48.956;9.076;2023-09-19T11:06:19;3.08;;;1.17;;
63714;SDS011;49858;48.956;9.076;2023-09-19T11:08:57;2.70;;;0.75;;
63714;SDS011;49858;48.956;9.076;2023-09-19T11:11:44;4.25;;;1.02;;
63714;SDS011;49858;48.956;9.076;2023-09-19T11:23:18;1.88;;;0.93;;
63714;SDS011;49858;48.956;9.076;2023-09-19T11:25:53;0.95;;;0.77;;
63714;SDS011;49858;48.956;9.076;2023-09-19T11:28:28;2.83;;;0.90;;
63714;SDS011;49858;48.956;9.076;2023-09-19T11:40:29;1.58;;;0.80;;
63714;SDS011;49858;48.956;9.076;2023-09-19T11:42:58;2.15;;;0.68;;
63714;SDS011;49858;48.956;9.076;2023-09-19T11:48:40;1.48;;;0.60;;
63714;SDS011;49858;48.956;9.076;2023-09-19T11:51:12;2.15;;;0.82;;
63714;SDS011;49858;48.956;9.076;2023-09-19T11:53:49;0.98;;;0.60;;
63714;SDS011;49858;48.956;9.076;2023-09-19T11:56:18;0.85;;;0.57;;
63714;SDS011;49858;48.956;9.076;2023-09-19T11:58:50;1.83;;;0.73;;
63714;SDS011;49858;48.956;9.076;2023-09-19T12:01:21;3.23;;;1.10;;
63714;SDS011;49858;48.956;9.076;2023-09-19T12:03:55;2.63;;;1.10;;
63714;SDS011;49858;48.956;9.076;2023-09-19T12:06:24;4.45;;;1.08;;
63714;SDS011;49858;48.956;9.076;2023-09-19T12:08:53;2.78;;;0.95;;
63714;SDS011;49858;48.956;9.076;2023-09-19T12:11:21;2.55;;;0.90;;
63714;SDS011;49858;48.956;9.076;2023-09-19T12:13:52;1.15;;;0.65;;
63714;SDS011;49858;48.956;9.076;2023-09-19T12:16:23;4.10;;;0.95;;
63714;SDS011;49858;48.956;9.076;2023-09-19T12:18:52;1.27;;;0.60;;
63714;SDS011;49858;48.956;9.076;2023-09-19T12:21:25;1.70;;;0.70;;
63714;SDS011;49858;48.956;9.076;2023-09-19T12:24:06;3.28;;;1.10;;
63714;SDS011;49858;48.956;9.076;2023-09-19T12:26:40;1.98;;;1.02;;
63714;SDS011;49858;48.956;9.076;2023-09-19T12:29:14;3.03;;;0.90;;
63714;SDS011;49858;48.956;9.076;2023-09-19T12:31:51;1.38;;;0.80;;
63714;SDS011;49858;48.956;9.076;2023-09-19T12:34:22;2.10;;;0.90;;
63714;SDS011;49858;48.956;9.076;2023-09-19T12:37:03;1.42;;;0.70;;
63714;SDS011;49858;48.956;9.076;2023-09-19T12:39:38;3.92;;;0.80;;
63714;SDS011;49858;48.956;9.076;2023-09-19T12:42:12;1.23;;;0.70;;
63714;SDS011;49858;48.956;9.076;2023-09-19T12:44:43;1.40;;;1.00;;
63714;SDS011;49858;48.956;9.076;2023-09-19T12:47:13;0.80;;;0.50;;
63714;SDS011;49858;48.956;9.076;2023-09-19T12:50:05;1.73;;;0.80;;
63714;SDS011;49858;48.956;9.076;2023-09-19T12:52:39;2.45;;;0.90;;
63714;SDS011;49858;48.956;9.076;2023-09-19T12:55:19;1.30;;;0.73;;
63714;SDS011;49858;48.956;9.076;2023-09-19T12:57:55;2.45;;;0.88;;
63714;SDS011;49858;48.956;9.076;2023-09-19T13:00:32;0.82;;;0.43;;
63714;SDS011;49858;48.956;9.076;2023-09-19T13:03:15;2.72;;;1.05;;
63714;SDS011;49858;48.956;9.076;2023-09-19T13:05:47;1.98;;;0.90;;
63714;SDS011;49858;48.956;9.076;2023-09-19T13:08:20;2.20;;;0.73;;
63714;SDS011;49858;48.956;9.076;2023-09-19T13:11:06;1.55;;;0.68;;
63714;SDS011;49858;48.956;9.076;2023-09-19T13:13:41;1.95;;;1.05;;
63714;SDS011;49858;48.956;9.076;2023-09-19T13:16:17;2.25;;;0.90;;
63714;SDS011;49858;48.956;9.076;2023-09-19T13:18:49;2.20;;;0.70;;
63714;SDS011;49858;48.956;9.076;2023-09-19T13:21:27;5.13;;;0.88;;
63714;SDS011;49858;48.956;9.076;2023-09-19T13:26:49;1.30;;;0.80;;
63714;SDS011;49858;48.956;9.076;2023-09-19T13:29:17;2.38;;;0.73;;
63714;SDS011;49858;48.956;9.076;2023-09-19T13:31:47;2.58;;;0.80;;
63714;SDS011;49858;48.956;9.076;2023-09-19T13:34:16;1.83;;;0.98;;
63714;SDS011;49858;48.956;9.076;2023-09-19T13:36:44;0.80;;;0.60;;
63714;SDS011;49858;48.956;9.076;2023-09-19T13:39:14;2.60;;;0.75;;
63714;SDS011;49858;48.956;9.076;2023-09-19T13:41:43;1.55;;;0.70;;
63714;SDS011;49858;48.956;9.076;2023-09-19T13:44:13;1.77;;;1.05;;
63714;SDS011;49858;48.956;9.076;2023-09-19T13:46:43;1.13;;;0.50;;
63714;SDS011;49858;48.956;9.076;2023-09-19T13:49:15;1.80;;;1.00;;
63714;SDS011;49858;48.956;9.076;2023-09-19T13:51:46;1.20;;;0.65;;
63714;SDS011;49858;48.956;9.076;2023-09-19T13:54:14;1.55;;;0.90;;
63714;SDS011;49858;48.956;9.076;2023-09-19T13:56:43;2.33;;;0.98;;
63714;SDS011;49858;48.956;9.076;2023-09-19T13:59:11;5.13;;;0.85;;
63714;SDS011;49858;48.956;9.076;2023-09-19T14:01:39;1.77;;;0.68;;
63714;SDS011;49858;48.956;9.076;2023-09-19T14:04:08;1.05;;;0.80;;
63714;SDS011;49858;48.956;9.076;2023-09-19T14:06:38;0.40;;;0.40;;
63714;SDS011;49858;48.956;9.076;2023-09-19T14:09:09;1.52;;;0.68;;
63714;SDS011;49858;48.956;9.076;2023-09-19T14:11:38;1.90;;;0.73;;
63714;SDS011;49858;48.956;9.076;2023-09-19T14:14:06;2.20;;;0.80;;
63714;SDS011;49858;48.956;9.076;2023-09-19T14:16:33;1.17;;;0.90;;
63714;SDS011;49858;48.956;9.076;2023-09-19T14:19:01;5.40;;;1.00;;
63714;SDS011;49858;48.956;9.076;2023-09-19T14:21:31;3.47;;;0.80;;
63714;SDS011;49858;48.956;9.076;2023-09-19T14:24:00;2.05;;;0.65;;
63714;SDS011;49858;48.956;9.076;2023-09-19T14:26:28;0.75;;;0.52;;
63714;SDS011;49858;48.956;9.076;2023-09-19T14:28:56;4.28;;;0.90;;
63714;SDS011;49858;48.956;9.076;2023-09-19T14:31:26;1.48;;;0.73;;
63714;SDS011;49858;48.956;9.076;2023-09-19T14:33:54;2.13;;;0.52;;
63714;SDS011;49858;48.956;9.076;2023-09-19T14:36:22;1.52;;;0.55;;
63714;SDS011;49858;48.956;9.076;2023-09-19T14:38:52;1.20;;;0.77;;
63714;SDS011;49858;48.956;9.076;2023-09-19T14:41:22;0.88;;;0.52;;
63714;SDS011;49858;48.956;9.076;2023-09-19T14:43:52;1.42;;;0.85;;
63714;SDS011;49858;48.956;9.076;2023-09-19T14:46:21;1.27;;;0.63;;
63714;SDS011;49858;48.956;9.076;2023-09-19T14:48:51;2.45;;;0.55;;
63714;SDS011;49858;48.956;9.076;2023-09-19T14:51:19;1.63;;;0.70;;
63714;SDS011;49858;48.956;9.076;2023-09-19T14:53:47;1.42;;;0.47;;
63714;SDS011;49858;48.956;9.076;2023-09-19T14:56:15;1.05;;;0.63;;
63714;SDS011;49858;48.956;9.076;2023-09-19T14:58:48;1.60;;;0.85;;
63714;SDS011;49858;48.956;9.076;2023-09-19T15:01:15;1.92;;;0.50;;
63714;SDS011;49858;48.956;9.076;2023-09-19T15:03:44;1.85;;;0.88;;
63714;SDS011;49858;48.956;9.076;2023-09-19T15:06:13;0.98;;;0.68;;
63714;SDS011;49858;48.956;9.076;2023-09-19T15:08:44;1.50;;;0.80;;
63714;SDS011;49858;48.956;9.076;2023-09-19T15:11:14;1.20;;;0.70;;
63714;SDS011;49858;48.956;9.076;2023-09-19T15:13:44;2.95;;;0.65;;
63714;SDS011;49858;48.956;9.076;2023-09-19T15:16:14;1.05;;;0.60;;
63714;SDS011;49858;48.956;9.076;2023-09-19T15:18:44;2.80;;;1.25;;
63714;SDS011;49858;48.956;9.076;2023-09-19T15:21:14;1.27;;;0.90;;
63714;SDS011;49858;48.956;9.076;2023-09-19T15:23:43;2.72;;;0.90;;
63714;SDS011;49858;48.956;9.076;2023-09-19T15:26:12;0.60;;;0.38;;
63714;SDS011;49858;48.956;9.076;2023-09-19T15:28:44;1.65;;;0.65;;
63714;SDS011;49858;48.956;9.076;2023-09-19T15:31:12;1.17;;;0.70;;
63714;SDS011;49858;48.956;9.076;2023-09-19T15:33:41;1.48;;;0.73;;
63714;SDS011;49858;48.956;9.076;2023-09-19T15:36:10;0.80;;;0.60;;
63714;SDS011;49858;48.956;9.076;2023-09-19T15:38:55;0.35;;;0.30;;
63714;SDS011;49858;48.956;9.076;2023-09-19T15:41:24;1.45;;;0.70;;
63714;SDS011;49858;48.956;9.076;2023-09-19T15:43:52;1.60;;;0.75;;